AIC2842 VOGO-VABB
Flight info
| Callsign | AIC2842 |
|---|---|
| Flight time | 0h 41m |
| Altitude | 24000 |
| Route | GUTNA2D GUTNA V51 OKILA/N0491F380 R461 KABSO KETOR2A |
| Aircraft | B77W/H-SDE1E2E3FGHIJ2J3J4J5M1RWXY/LB1D1 |
Departure
| Time | 2026-05-08 05:10 |
|---|---|
| Airport | Goa Dabolim International Airport (VOGO) |
Arrival
| Time | 2026-05-08 05:52 |
|---|---|
| Airport | Chhatrapati Shivaji Maharaj International Airport (VABB) |
| Time | Latitude | Longitude | Altitude | Speed | Heading |
|---|---|---|---|---|---|
| 2026-05-08 05:04 | 15.38406 | 73.83720 | 180 ft | 0 kts | 348° |
| 2026-05-08 05:04 | 15.38395 | 73.83722 | 180 ft | 4 kts | 353° |
| 2026-05-08 05:05 | 15.38368 | 73.83723 | 180 ft | 4 kts | 10° |
| 2026-05-08 05:05 | 15.38343 | 73.83714 | 179 ft | 4 kts | 37° |
| 2026-05-08 05:05 | 15.38330 | 73.83697 | 179 ft | 1 kts | 77° |
| 2026-05-08 05:05 | 15.38329 | 73.83697 | 179 ft | 0 kts | 77° |
| 2026-05-08 05:07 | 15.38330 | 73.83699 | 179 ft | 3 kts | 77° |
| 2026-05-08 05:07 | 15.38345 | 73.83776 | 182 ft | 13 kts | 79° |
| 2026-05-08 05:07 | 15.38363 | 73.83867 | 197 ft | 13 kts | 78° |
| 2026-05-08 05:08 | 15.38383 | 73.83970 | 200 ft | 16 kts | 78° |
| 2026-05-08 05:08 | 15.38404 | 73.84088 | 193 ft | 18 kts | 82° |
| 2026-05-08 05:08 | 15.38434 | 73.84258 | 209 ft | 33 kts | 79° |
| 2026-05-08 05:08 | 15.38480 | 73.84507 | 217 ft | 34 kts | 78° |
| 2026-05-08 05:09 | 15.38519 | 73.84708 | 217 ft | 14 kts | 78° |
| 2026-05-08 05:09 | 15.38518 | 73.84798 | 226 ft | 8 kts | 132° |
| 2026-05-08 05:09 | 15.38461 | 73.84812 | 223 ft | 9 kts | 167° |
| 2026-05-08 05:09 | 15.38397 | 73.84807 | 221 ft | 11 kts | 220° |
| 2026-05-08 05:10 | 15.38356 | 73.84696 | 218 ft | 33 kts | 258° |
| 2026-05-08 05:10 | 15.38041 | 73.83092 | 172 ft | 185 kts | 259° |
| 2026-05-08 05:10 | 15.37775 | 73.81766 | 876 ft | 186 kts | 260° |
| 2026-05-08 05:11 | 15.37537 | 73.80396 | 1723 ft | 194 kts | 259° |
| 2026-05-08 05:11 | 15.37351 | 73.78995 | 2244 ft | 212 kts | 275° |
| 2026-05-08 05:11 | 15.37968 | 73.77526 | 2494 ft | 239 kts | 313° |
| 2026-05-08 05:11 | 15.39421 | 73.76540 | 2859 ft | 259 kts | 337° |
| 2026-05-08 05:12 | 15.41097 | 73.75765 | 3649 ft | 268 kts | 339° |
| 2026-05-08 05:12 | 15.42832 | 73.74967 | 4419 ft | 278 kts | 339° |
| 2026-05-08 05:12 | 15.44590 | 73.74112 | 5405 ft | 279 kts | 337° |
| 2026-05-08 05:12 | 15.46327 | 73.73231 | 6433 ft | 278 kts | 336° |
| 2026-05-08 05:13 | 15.48052 | 73.72326 | 7362 ft | 281 kts | 335° |
| 2026-05-08 05:13 | 15.49811 | 73.71380 | 8222 ft | 286 kts | 335° |
| 2026-05-08 05:13 | 15.51597 | 73.70414 | 9104 ft | 290 kts | 335° |
| 2026-05-08 05:13 | 15.53402 | 73.69441 | 9958 ft | 295 kts | 335° |
| 2026-05-08 05:14 | 15.55256 | 73.68432 | 10545 ft | 311 kts | 335° |
| 2026-05-08 05:14 | 15.57264 | 73.67329 | 10761 ft | 342 kts | 334° |
| 2026-05-08 05:14 | 15.59449 | 73.66114 | 10986 ft | 371 kts | 334° |
| 2026-05-08 05:14 | 15.61766 | 73.64812 | 11572 ft | 385 kts | 333° |
| 2026-05-08 05:15 | 15.64151 | 73.63461 | 12419 ft | 394 kts | 333° |
| 2026-05-08 05:15 | 15.66571 | 73.62085 | 13403 ft | 399 kts | 332° |
| 2026-05-08 05:15 | 15.69023 | 73.60688 | 14293 ft | 404 kts | 332° |
| 2026-05-08 05:15 | 15.71506 | 73.59272 | 15160 ft | 409 kts | 332° |
| 2026-05-08 05:16 | 15.73973 | 73.57866 | 15999 ft | 414 kts | 332° |
| 2026-05-08 05:16 | 15.76521 | 73.56413 | 16831 ft | 419 kts | 331° |
| 2026-05-08 05:16 | 15.79090 | 73.54948 | 17658 ft | 424 kts | 331° |
| 2026-05-08 05:16 | 15.81694 | 73.53464 | 18424 ft | 429 kts | 330° |
| 2026-05-08 05:17 | 15.84320 | 73.51966 | 19163 ft | 431 kts | 331° |
| 2026-05-08 05:17 | 15.86954 | 73.50464 | 19942 ft | 432 kts | 331° |
| 2026-05-08 05:17 | 15.89600 | 73.48954 | 20642 ft | 436 kts | 332° |
| 2026-05-08 05:17 | 15.92268 | 73.47432 | 21295 ft | 440 kts | 332° |
| 2026-05-08 05:18 | 15.94965 | 73.45892 | 21953 ft | 443 kts | 332° |
| 2026-05-08 05:18 | 15.97676 | 73.44345 | 22601 ft | 446 kts | 332° |
| 2026-05-08 05:18 | 16.00411 | 73.42783 | 23235 ft | 449 kts | 332° |
| 2026-05-08 05:18 | 16.03162 | 73.41211 | 23776 ft | 452 kts | 332° |
| 2026-05-08 05:19 | 16.05930 | 73.39629 | 24236 ft | 457 kts | 332° |
| 2026-05-08 05:19 | 16.08729 | 73.38029 | 24673 ft | 461 kts | 332° |
| 2026-05-08 05:19 | 16.11559 | 73.36411 | 25099 ft | 466 kts | 332° |
| 2026-05-08 05:19 | 16.14369 | 73.34803 | 25542 ft | 470 kts | 332° |
| 2026-05-08 05:20 | 16.17277 | 73.33138 | 26013 ft | 473 kts | 332° |
| 2026-05-08 05:20 | 16.20135 | 73.31502 | 26501 ft | 475 kts | 332° |
| 2026-05-08 05:20 | 16.23035 | 73.29840 | 26967 ft | 478 kts | 332° |
| 2026-05-08 05:20 | 16.25964 | 73.28162 | 27432 ft | 481 kts | 331° |
| 2026-05-08 05:21 | 16.28908 | 73.26474 | 27834 ft | 485 kts | 331° |
| 2026-05-08 05:21 | 16.31892 | 73.24764 | 27861 ft | 492 kts | 331° |
| 2026-05-08 05:21 | 16.34927 | 73.23095 | 27870 ft | 494 kts | 333° |
| 2026-05-08 05:21 | 16.38017 | 73.21525 | 27863 ft | 494 kts | 334° |
| 2026-05-08 05:22 | 16.41123 | 73.19992 | 27865 ft | 493 kts | 335° |
| 2026-05-08 05:22 | 16.44222 | 73.18460 | 27864 ft | 493 kts | 334° |
| 2026-05-08 05:22 | 16.47315 | 73.16910 | 27857 ft | 493 kts | 334° |
| 2026-05-08 05:22 | 16.50407 | 73.15342 | 27864 ft | 493 kts | 334° |
| 2026-05-08 05:23 | 16.53485 | 73.13770 | 27848 ft | 493 kts | 334° |
| 2026-05-08 05:23 | 16.56565 | 73.12197 | 27857 ft | 493 kts | 334° |
| 2026-05-08 05:23 | 16.59606 | 73.10631 | 27860 ft | 493 kts | 333° |
| 2026-05-08 05:23 | 16.62628 | 73.08942 | 27846 ft | 493 kts | 331° |
| 2026-05-08 05:24 | 16.65623 | 73.07198 | 27865 ft | 493 kts | 330° |
| 2026-05-08 05:24 | 16.68611 | 73.05432 | 27862 ft | 493 kts | 330° |
| 2026-05-08 05:24 | 16.71594 | 73.03668 | 27862 ft | 493 kts | 330° |
| 2026-05-08 05:24 | 16.74585 | 73.01906 | 27856 ft | 493 kts | 330° |
| 2026-05-08 05:25 | 16.77571 | 73.00155 | 27846 ft | 493 kts | 330° |
| 2026-05-08 05:25 | 16.80563 | 72.98406 | 27866 ft | 493 kts | 330° |
| 2026-05-08 05:25 | 16.83564 | 72.96655 | 27846 ft | 493 kts | 330° |
| 2026-05-08 05:25 | 16.86560 | 72.94908 | 27860 ft | 493 kts | 330° |
| 2026-05-08 05:26 | 16.89553 | 72.93161 | 27850 ft | 493 kts | 330° |
| 2026-05-08 05:26 | 16.92548 | 72.91411 | 27868 ft | 493 kts | 330° |
| 2026-05-08 05:26 | 16.95538 | 72.89663 | 27852 ft | 493 kts | 330° |
| 2026-05-08 05:26 | 16.98533 | 72.87911 | 27861 ft | 493 kts | 330° |
| 2026-05-08 05:27 | 17.01529 | 72.86158 | 27866 ft | 493 kts | 330° |
| 2026-05-08 05:27 | 17.04525 | 72.84440 | 27852 ft | 491 kts | 334° |
| 2026-05-08 05:27 | 17.07729 | 72.83217 | 27868 ft | 492 kts | 346° |
| 2026-05-08 05:27 | 17.11115 | 72.82671 | 27867 ft | 493 kts | 355° |
| 2026-05-08 05:28 | 17.14544 | 72.82743 | 27855 ft | 494 kts | 7° |
| 2026-05-08 05:28 | 17.17922 | 72.83336 | 27875 ft | 493 kts | 9° |
| 2026-05-08 05:28 | 17.21302 | 72.83994 | 27867 ft | 494 kts | 9° |
| 2026-05-08 05:28 | 17.24645 | 72.84651 | 27855 ft | 495 kts | 9° |
| 2026-05-08 05:29 | 17.28083 | 72.85315 | 27867 ft | 496 kts | 9° |
| 2026-05-08 05:29 | 17.31427 | 72.85944 | 27855 ft | 495 kts | 9° |
| 2026-05-08 05:29 | 17.34826 | 72.86569 | 27865 ft | 495 kts | 9° |
| 2026-05-08 05:29 | 17.38215 | 72.87183 | 27856 ft | 495 kts | 8° |
| 2026-05-08 05:30 | 17.41621 | 72.87795 | 27858 ft | 494 kts | 8° |
| 2026-05-08 05:30 | 17.45012 | 72.88402 | 27855 ft | 494 kts | 8° |
| 2026-05-08 05:30 | 17.48394 | 72.89008 | 27872 ft | 494 kts | 8° |
| 2026-05-08 05:30 | 17.51791 | 72.89617 | 27856 ft | 494 kts | 8° |
| 2026-05-08 05:31 | 17.55181 | 72.90226 | 27873 ft | 494 kts | 8° |
| 2026-05-08 05:31 | 17.58563 | 72.90835 | 27858 ft | 494 kts | 8° |
| 2026-05-08 05:31 | 17.61948 | 72.91444 | 27857 ft | 494 kts | 8° |
| 2026-05-08 05:31 | 17.65333 | 72.92054 | 27870 ft | 494 kts | 8° |
| 2026-05-08 05:32 | 17.68698 | 72.92662 | 27730 ft | 487 kts | 8° |
| 2026-05-08 05:32 | 17.72034 | 72.93264 | 27057 ft | 485 kts | 8° |
| 2026-05-08 05:32 | 17.75350 | 72.93862 | 26401 ft | 480 kts | 8° |
| 2026-05-08 05:32 | 17.78626 | 72.94454 | 25726 ft | 475 kts | 8° |
| 2026-05-08 05:33 | 17.81822 | 72.95031 | 25055 ft | 470 kts | 8° |
| 2026-05-08 05:33 | 17.85029 | 72.95611 | 24370 ft | 466 kts | 8° |
| 2026-05-08 05:33 | 17.88216 | 72.96186 | 23699 ft | 462 kts | 9° |
| 2026-05-08 05:33 | 17.91379 | 72.96758 | 22943 ft | 459 kts | 9° |
| 2026-05-08 05:34 | 17.94513 | 72.97325 | 22234 ft | 454 kts | 9° |
| 2026-05-08 05:34 | 17.97603 | 72.97884 | 21571 ft | 448 kts | 9° |
| 2026-05-08 05:34 | 18.00662 | 72.98437 | 20923 ft | 443 kts | 9° |
| 2026-05-08 05:34 | 18.03687 | 72.98985 | 20300 ft | 439 kts | 9° |
| 2026-05-08 05:35 | 18.06686 | 72.99528 | 19675 ft | 435 kts | 9° |
| 2026-05-08 05:35 | 18.09653 | 73.00065 | 19040 ft | 432 kts | 9° |
| 2026-05-08 05:35 | 18.12609 | 73.00601 | 18416 ft | 429 kts | 9° |
| 2026-05-08 05:35 | 18.15544 | 73.01133 | 17734 ft | 427 kts | 9° |
| 2026-05-08 05:36 | 18.18455 | 73.01661 | 17069 ft | 423 kts | 9° |
| 2026-05-08 05:36 | 18.21341 | 73.02183 | 16435 ft | 419 kts | 9° |
| 2026-05-08 05:36 | 18.24199 | 73.02701 | 15822 ft | 415 kts | 9° |
| 2026-05-08 05:36 | 18.27023 | 73.03213 | 15229 ft | 411 kts | 10° |
| 2026-05-08 05:37 | 18.29841 | 73.03724 | 14643 ft | 408 kts | 10° |
| 2026-05-08 05:37 | 18.32635 | 73.04232 | 14037 ft | 407 kts | 11° |
| 2026-05-08 05:37 | 18.35421 | 73.04737 | 13395 ft | 406 kts | 11° |
| 2026-05-08 05:37 | 18.38152 | 73.05234 | 12859 ft | 401 kts | 11° |
| 2026-05-08 05:38 | 18.40894 | 73.05734 | 12329 ft | 396 kts | 11° |
| 2026-05-08 05:38 | 18.43588 | 73.06225 | 11887 ft | 389 kts | 11° |
| 2026-05-08 05:38 | 18.46233 | 73.06705 | 11451 ft | 382 kts | 11° |
| 2026-05-08 05:38 | 18.48834 | 73.07177 | 11090 ft | 375 kts | 11° |
| 2026-05-08 05:39 | 18.51357 | 73.07634 | 10980 ft | 359 kts | 11° |
| 2026-05-08 05:39 | 18.53772 | 73.08073 | 10911 ft | 345 kts | 11° |
| 2026-05-08 05:39 | 18.56101 | 73.08497 | 10843 ft | 333 kts | 11° |
| 2026-05-08 05:39 | 18.58345 | 73.08906 | 10768 ft | 322 kts | 11° |
| 2026-05-08 05:40 | 18.60487 | 73.09296 | 10694 ft | 310 kts | 12° |
| 2026-05-08 05:40 | 18.62600 | 73.09681 | 10619 ft | 299 kts | 12° |
| 2026-05-08 05:40 | 18.64592 | 73.10044 | 10506 ft | 290 kts | 12° |
| 2026-05-08 05:40 | 18.66547 | 73.10402 | 10353 ft | 283 kts | 12° |
| 2026-05-08 05:41 | 18.68481 | 73.10755 | 10073 ft | 281 kts | 12° |
| 2026-05-08 05:41 | 18.70408 | 73.11105 | 9795 ft | 281 kts | 12° |
| 2026-05-08 05:41 | 18.72344 | 73.11463 | 9398 ft | 283 kts | 12° |
| 2026-05-08 05:41 | 18.74285 | 73.11821 | 9041 ft | 284 kts | 12° |
| 2026-05-08 05:42 | 18.76233 | 73.12177 | 8677 ft | 284 kts | 12° |
| 2026-05-08 05:42 | 18.78186 | 73.12534 | 8320 ft | 285 kts | 11° |
| 2026-05-08 05:42 | 18.80144 | 73.12891 | 7957 ft | 286 kts | 11° |
| 2026-05-08 05:42 | 18.82104 | 73.13249 | 7610 ft | 286 kts | 11° |
| 2026-05-08 05:43 | 18.84063 | 73.13607 | 7249 ft | 286 kts | 11° |
| 2026-05-08 05:43 | 18.86019 | 73.13947 | 6905 ft | 286 kts | 8° |
| 2026-05-08 05:43 | 18.87337 | 73.14095 | 6688 ft | 286 kts | 6° |
| 2026-05-08 05:43 | 18.89316 | 73.14275 | 6366 ft | 286 kts | 5° |
| 2026-05-08 05:44 | 18.91296 | 73.14449 | 5983 ft | 286 kts | 5° |
| 2026-05-08 05:44 | 18.93282 | 73.14626 | 5637 ft | 286 kts | 5° |
| 2026-05-08 05:44 | 18.95265 | 73.14804 | 5359 ft | 283 kts | 5° |
| 2026-05-08 05:44 | 18.97755 | 73.15025 | 5223 ft | 255 kts | 5° |
| 2026-05-08 05:45 | 18.99457 | 73.15174 | 4964 ft | 237 kts | 5° |
| 2026-05-08 05:45 | 19.00545 | 73.15269 | 4776 ft | 226 kts | 5° |
| 2026-05-08 05:45 | 19.02068 | 73.15398 | 4616 ft | 216 kts | 5° |
| 2026-05-08 05:45 | 19.03559 | 73.15525 | 4359 ft | 214 kts | 5° |
| 2026-05-08 05:46 | 19.05036 | 73.15618 | 4201 ft | 209 kts | 357° |
| 2026-05-08 05:46 | 19.06412 | 73.15117 | 3867 ft | 216 kts | 324° |
| 2026-05-08 05:46 | 19.07339 | 73.13910 | 3628 ft | 215 kts | 303° |
| 2026-05-08 05:46 | 19.08045 | 73.12517 | 3430 ft | 216 kts | 300° |
| 2026-05-08 05:47 | 19.08735 | 73.11104 | 3206 ft | 216 kts | 297° |
| 2026-05-08 05:47 | 19.09089 | 73.09559 | 2928 ft | 217 kts | 278° |
| 2026-05-08 05:47 | 19.09159 | 73.08004 | 2865 ft | 204 kts | 272° |
| 2026-05-08 05:47 | 19.09146 | 73.06532 | 2858 ft | 198 kts | 271° |
| 2026-05-08 05:48 | 19.09124 | 73.05092 | 2846 ft | 197 kts | 271° |
| 2026-05-08 05:48 | 19.09106 | 73.03651 | 2850 ft | 192 kts | 271° |
| 2026-05-08 05:48 | 19.09088 | 73.02260 | 2606 ft | 187 kts | 271° |
| 2026-05-08 05:48 | 19.09067 | 73.00916 | 2350 ft | 177 kts | 271° |
| 2026-05-08 05:49 | 19.09048 | 72.99652 | 2128 ft | 169 kts | 271° |
| 2026-05-08 05:49 | 19.09032 | 72.98422 | 1940 ft | 169 kts | 270° |
| 2026-05-08 05:49 | 19.09015 | 72.97161 | 1731 ft | 171 kts | 270° |
| 2026-05-08 05:49 | 19.08998 | 72.95946 | 1513 ft | 158 kts | 271° |
| 2026-05-08 05:50 | 19.08982 | 72.94818 | 1311 ft | 151 kts | 271° |
| 2026-05-08 05:50 | 19.08967 | 72.93706 | 1126 ft | 150 kts | 271° |
| 2026-05-08 05:50 | 19.08954 | 72.92606 | 949 ft | 149 kts | 271° |
| 2026-05-08 05:50 | 19.08936 | 72.91519 | 766 ft | 146 kts | 271° |
| 2026-05-08 05:51 | 19.08918 | 72.90451 | 566 ft | 144 kts | 270° |
| 2026-05-08 05:51 | 19.08903 | 72.89380 | 397 ft | 147 kts | 270° |
| 2026-05-08 05:51 | 19.08892 | 72.88306 | 199 ft | 147 kts | 269° |
| 2026-05-08 05:51 | 19.08876 | 72.87249 | 57 ft | 138 kts | 271° |
| 2026-05-08 05:52 | 19.08864 | 72.86348 | 53 ft | 103 kts | 269° |
| 2026-05-08 05:52 | 19.08857 | 72.85750 | 53 ft | 59 kts | 269° |
| 2026-05-08 05:52 | 19.08865 | 72.85454 | 53 ft | 31 kts | 280° |
| 2026-05-08 05:52 | 19.08927 | 72.85286 | 48 ft | 13 kts | 300° |
| 2026-05-08 05:53 | 19.08990 | 72.85264 | 52 ft | 9 kts | 33° |
| 2026-05-08 05:53 | 19.09020 | 72.85322 | 50 ft | 10 kts | 80° |
| 2026-05-08 05:53 | 19.09023 | 72.85395 | 49 ft | 11 kts | 89° |
| 2026-05-08 05:53 | 19.09024 | 72.85477 | 49 ft | 12 kts | 89° |
| 2026-05-08 05:54 | 19.09025 | 72.85567 | 48 ft | 13 kts | 89° |
| 2026-05-08 05:54 | 19.09027 | 72.85666 | 54 ft | 15 kts | 89° |
| 2026-05-08 05:54 | 19.09029 | 72.85781 | 54 ft | 17 kts | 89° |
| 2026-05-08 05:54 | 19.09031 | 72.85915 | 53 ft | 19 kts | 89° |
| 2026-05-08 05:55 | 19.09033 | 72.86067 | 53 ft | 22 kts | 89° |
| 2026-05-08 05:55 | 19.09036 | 72.86235 | 53 ft | 24 kts | 89° |
| 2026-05-08 05:55 | 19.09038 | 72.86415 | 49 ft | 25 kts | 90° |
| 2026-05-08 05:55 | 19.09040 | 72.86597 | 49 ft | 25 kts | 88° |
| 2026-05-08 05:56 | 19.09042 | 72.86780 | 49 ft | 25 kts | 88° |
| 2026-05-08 05:56 | 19.09045 | 72.86929 | 55 ft | 20 kts | 89° |
| 2026-05-08 05:56 | 19.09047 | 72.87074 | 51 ft | 20 kts | 89° |
| 2026-05-08 05:56 | 19.09048 | 72.87224 | 51 ft | 21 kts | 89° |
| 2026-05-08 05:57 | 19.09096 | 72.87261 | 48 ft | 9 kts | 3° |
| 2026-05-08 05:57 | 19.09192 | 72.87261 | 49 ft | 16 kts | 347° |
| 2026-05-08 05:57 | 19.09234 | 72.87188 | 49 ft | 7 kts | 274° |
| 2026-05-08 05:57 | 19.09263 | 72.87150 | 48 ft | 7 kts | 340° |
| 2026-05-08 05:58 | 19.09302 | 72.87146 | 52 ft | 5 kts | 356° |
| 2026-05-08 05:58 | 19.09310 | 72.87146 | 53 ft | 0 kts | 358° |